sensor_id;sensor_type;location;lat;lon;timestamp;temperature;humidity
74809;DHT22;63338;39.544;2.596;2023-07-20T00:02:07;28.70;82.50
74809;DHT22;63338;39.544;2.596;2023-07-20T00:04:33;28.70;82.60
74809;DHT22;63338;39.544;2.596;2023-07-20T00:07:00;28.60;82.60
74809;DHT22;63338;39.544;2.596;2023-07-20T00:09:35;28.60;82.60
74809;DHT22;63338;39.544;2.596;2023-07-20T00:12:05;28.60;82.80
74809;DHT22;63338;39.544;2.596;2023-07-20T00:14:31;28.50;82.70
74809;DHT22;63338;39.544;2.596;2023-07-20T00:16:59;28.60;82.80
74809;DHT22;63338;39.544;2.596;2023-07-20T00:19:28;28.60;82.80
74809;DHT22;63338;39.544;2.596;2023-07-20T00:21:56;28.60;82.80
74809;DHT22;63338;39.544;2.596;2023-07-20T00:24:22;28.50;83.10
74809;DHT22;63338;39.544;2.596;2023-07-20T00:26:50;28.50;83.10
74809;DHT22;63338;39.544;2.596;2023-07-20T00:29:16;28.50;83.10
74809;DHT22;63338;39.544;2.596;2023-07-20T00:31:44;28.40;82.90
74809;DHT22;63338;39.544;2.596;2023-07-20T00:34:11;28.50;82.40
74809;DHT22;63338;39.544;2.596;2023-07-20T00:36:39;28.50;82.20
74809;DHT22;63338;39.544;2.596;2023-07-20T00:39:06;28.50;82.30
74809;DHT22;63338;39.544;2.596;2023-07-20T00:41:32;28.50;82.00
74809;DHT22;63338;39.544;2.596;2023-07-20T00:44:01;28.60;81.80
74809;DHT22;63338;39.544;2.596;2023-07-20T00:46:27;28.60;81.60
74809;DHT22;63338;39.544;2.596;2023-07-20T00:48:56;28.60;81.50
74809;DHT22;63338;39.544;2.596;2023-07-20T00:51:23;28.50;81.60
74809;DHT22;63338;39.544;2.596;2023-07-20T00:53:50;28.60;81.50
74809;DHT22;63338;39.544;2.596;2023-07-20T00:56:17;28.50;81.40
74809;DHT22;63338;39.544;2.596;2023-07-20T00:58:43;28.50;81.40
74809;DHT22;63338;39.544;2.596;2023-07-20T01:01:10;28.60;81.30
74809;DHT22;63338;39.544;2.596;2023-07-20T01:04:08;28.70;81.40
74809;DHT22;63338;39.544;2.596;2023-07-20T01:15:47;28.70;81.30
74809;DHT22;63338;39.544;2.596;2023-07-20T01:18:35;28.60;81.40
74809;DHT22;63338;39.544;2.596;2023-07-20T01:21:08;28.60;81.60
74809;DHT22;63338;39.544;2.596;2023-07-20T01:31:38;28.50;82.10
74809;DHT22;63338;39.544;2.596;2023-07-20T01:34:09;28.60;82.40
74809;DHT22;63338;39.544;2.596;2023-07-20T01:36:38;28.50;82.40
74809;DHT22;63338;39.544;2.596;2023-07-20T01:39:04;28.50;82.30
74809;DHT22;63338;39.544;2.596;2023-07-20T01:41:33;28.50;82.40
74809;DHT22;63338;39.544;2.596;2023-07-20T01:44:00;28.50;82.50
74809;DHT22;63338;39.544;2.596;2023-07-20T01:46:26;28.50;82.70
74809;DHT22;63338;39.544;2.596;2023-07-20T01:48:53;28.50;82.70
74809;DHT22;63338;39.544;2.596;2023-07-20T01:51:22;28.50;82.80
74809;DHT22;63338;39.544;2.596;2023-07-20T01:53:49;28.50;82.90
74809;DHT22;63338;39.544;2.596;2023-07-20T01:56:15;28.60;82.80
74809;DHT22;63338;39.544;2.596;2023-07-20T01:58:41;28.50;83.30
74809;DHT22;63338;39.544;2.596;2023-07-20T02:01:07;28.50;83.40
74809;DHT22;63338;39.544;2.596;2023-07-20T02:03:34;28.50;83.30
74809;DHT22;63338;39.544;2.596;2023-07-20T02:06:00;28.50;83.40
74809;DHT22;63338;39.544;2.596;2023-07-20T02:08:26;28.50;83.60
74809;DHT22;63338;39.544;2.596;2023-07-20T02:10:52;28.50;83.60
74809;DHT22;63338;39.544;2.596;2023-07-20T02:13:18;28.50;83.50
74809;DHT22;63338;39.544;2.596;2023-07-20T02:15:44;28.50;83.70
74809;DHT22;63338;39.544;2.596;2023-07-20T02:18:13;28.50;84.00
74809;DHT22;63338;39.544;2.596;2023-07-20T02:20:41;28.50;84.00
74809;DHT22;63338;39.544;2.596;2023-07-20T02:23:08;28.50;84.20
74809;DHT22;63338;39.544;2.596;2023-07-20T02:25:34;28.50;84.40
74809;DHT22;63338;39.544;2.596;2023-07-20T02:28:04;28.40;84.50
74809;DHT22;63338;39.544;2.596;2023-07-20T02:30:30;28.40;84.60
74809;DHT22;63338;39.544;2.596;2023-07-20T02:33:15;28.40;84.80
74809;DHT22;63338;39.544;2.596;2023-07-20T02:44:05;28.40;84.90
74809;DHT22;63338;39.544;2.596;2023-07-20T02:46:37;28.30;85.10
74809;DHT22;63338;39.544;2.596;2023-07-20T02:49:13;28.30;85.30
74809;DHT22;63338;39.544;2.596;2023-07-20T02:51:49;28.30;85.10
74809;DHT22;63338;39.544;2.596;2023-07-20T02:54:18;28.40;85.30
74809;DHT22;63338;39.544;2.596;2023-07-20T02:56:44;28.30;85.30
74809;DHT22;63338;39.544;2.596;2023-07-20T02:59:10;28.40;85.20
74809;DHT22;63338;39.544;2.596;2023-07-20T03:01:40;28.30;85.20
74809;DHT22;63338;39.544;2.596;2023-07-20T03:04:08;28.30;85.40
74809;DHT22;63338;39.544;2.596;2023-07-20T03:06:38;28.40;85.50
74809;DHT22;63338;39.544;2.596;2023-07-20T03:09:08;28.40;85.40
74809;DHT22;63338;39.544;2.596;2023-07-20T03:11:35;28.40;85.10
74809;DHT22;63338;39.544;2.596;2023-07-20T03:14:02;28.30;85.30
74809;DHT22;63338;39.544;2.596;2023-07-20T03:16:52;28.30;85.30
74809;DHT22;63338;39.544;2.596;2023-07-20T03:19:18;28.30;85.30
74809;DHT22;63338;39.544;2.596;2023-07-20T03:21:45;28.40;85.30
74809;DHT22;63338;39.544;2.596;2023-07-20T03:24:14;28.40;85.50
74809;DHT22;63338;39.544;2.596;2023-07-20T03:26:59;28.40;85.50
74809;DHT22;63338;39.544;2.596;2023-07-20T03:29:26;28.40;85.50
74809;DHT22;63338;39.544;2.596;2023-07-20T03:32:12;28.40;85.50
74809;DHT22;63338;39.544;2.596;2023-07-20T03:34:48;28.50;85.60
74809;DHT22;63338;39.544;2.596;2023-07-20T03:37:28;28.40;85.50
74809;DHT22;63338;39.544;2.596;2023-07-20T03:39:55;28.40;85.70
74809;DHT22;63338;39.544;2.596;2023-07-20T03:42:21;28.40;85.70
74809;DHT22;63338;39.544;2.596;2023-07-20T03:44:47;28.30;85.80
74809;DHT22;63338;39.544;2.596;2023-07-20T03:47:19;28.40;85.90
74809;DHT22;63338;39.544;2.596;2023-07-20T03:49:54;28.40;85.90
74809;DHT22;63338;39.544;2.596;2023-07-20T03:52:25;28.40;86.00
74809;DHT22;63338;39.544;2.596;2023-07-20T03:58:20;28.40;86.20
74809;DHT22;63338;39.544;2.596;2023-07-20T04:00:48;28.30;86.30
74809;DHT22;63338;39.544;2.596;2023-07-20T04:03:24;28.30;86.40
74809;DHT22;63338;39.544;2.596;2023-07-20T04:05:54;28.50;86.40
74809;DHT22;63338;39.544;2.596;2023-07-20T04:08:24;28.30;86.50
74809;DHT22;63338;39.544;2.596;2023-07-20T04:10:51;28.30;86.50
74809;DHT22;63338;39.544;2.596;2023-07-20T04:13:17;28.30;86.70
74809;DHT22;63338;39.544;2.596;2023-07-20T04:19:27;28.30;86.70
74809;DHT22;63338;39.544;2.596;2023-07-20T04:21:54;28.40;86.50
74809;DHT22;63338;39.544;2.596;2023-07-20T04:24:20;28.30;86.50
74809;DHT22;63338;39.544;2.596;2023-07-20T04:26:52;28.40;86.60
74809;DHT22;63338;39.544;2.596;2023-07-20T04:29:18;28.40;86.50
74809;DHT22;63338;39.544;2.596;2023-07-20T04:31:47;28.40;86.60
74809;DHT22;63338;39.544;2.596;2023-07-20T04:34:16;28.50;86.70
74809;DHT22;63338;39.544;2.596;2023-07-20T04:36:43;28.40;86.60
74809;DHT22;63338;39.544;2.596;2023-07-20T04:39:10;28.40;86.60
74809;DHT22;63338;39.544;2.596;2023-07-20T04:41:36;28.40;86.60
74809;DHT22;63338;39.544;2.596;2023-07-20T04:44:02;28.40;86.70
74809;DHT22;63338;39.544;2.596;2023-07-20T04:46:34;28.50;86.60
74809;DHT22;63338;39.544;2.596;2023-07-20T04:49:00;28.50;86.50
74809;DHT22;63338;39.544;2.596;2023-07-20T04:51:27;28.40;86.60
74809;DHT22;63338;39.544;2.596;2023-07-20T04:53:59;28.50;86.50
74809;DHT22;63338;39.544;2.596;2023-07-20T04:56:25;28.50;86.70
74809;DHT22;63338;39.544;2.596;2023-07-20T04:58:51;28.50;86.60
74809;DHT22;63338;39.544;2.596;2023-07-20T05:05:07;28.60;86.30
74809;DHT22;63338;39.544;2.596;2023-07-20T05:13:52;28.60;86.10
74809;DHT22;63338;39.544;2.596;2023-07-20T05:16:50;28.50;85.90
74809;DHT22;63338;39.544;2.596;2023-07-20T05:19:16;28.50;85.90
74809;DHT22;63338;39.544;2.596;2023-07-20T05:21:42;28.60;85.70
74809;DHT22;63338;39.544;2.596;2023-07-20T05:24:09;28.50;85.50
74809;DHT22;63338;39.544;2.596;2023-07-20T05:26:35;28.60;85.20
74809;DHT22;63338;39.544;2.596;2023-07-20T05:29:01;28.50;85.30
74809;DHT22;63338;39.544;2.596;2023-07-20T05:31:27;28.60;84.60
74809;DHT22;63338;39.544;2.596;2023-07-20T05:33:57;28.50;84.50
74809;DHT22;63338;39.544;2.596;2023-07-20T05:36:24;28.60;84.30
74809;DHT22;63338;39.544;2.596;2023-07-20T05:38:53;28.50;84.00
74809;DHT22;63338;39.544;2.596;2023-07-20T05:41:20;28.60;84.20
74809;DHT22;63338;39.544;2.596;2023-07-20T05:43:46;28.50;84.00
74809;DHT22;63338;39.544;2.596;2023-07-20T05:46:13;28.60;83.70
74809;DHT22;63338;39.544;2.596;2023-07-20T05:48:39;28.60;83.70
74809;DHT22;63338;39.544;2.596;2023-07-20T05:51:06;28.60;83.30
74809;DHT22;63338;39.544;2.596;2023-07-20T05:57:34;28.60;82.30
74809;DHT22;63338;39.544;2.596;2023-07-20T06:00:09;28.60;82.20
74809;DHT22;63338;39.544;2.596;2023-07-20T06:02:35;28.60;81.60
74809;DHT22;63338;39.544;2.596;2023-07-20T06:05:22;28.70;81.50
74809;DHT22;63338;39.544;2.596;2023-07-20T06:07:50;28.60;81.30
74809;DHT22;63338;39.544;2.596;2023-07-20T06:10:27;28.70;81.60
74809;DHT22;63338;39.544;2.596;2023-07-20T06:12:54;28.70;80.80
74809;DHT22;63338;39.544;2.596;2023-07-20T06:15:33;28.70;80.90
74809;DHT22;63338;39.544;2.596;2023-07-20T06:18:01;28.60;80.50
74809;DHT22;63338;39.544;2.596;2023-07-20T06:20:27;28.60;80.50
74809;DHT22;63338;39.544;2.596;2023-07-20T06:22:53;28.60;80.80
74809;DHT22;63338;39.544;2.596;2023-07-20T06:25:19;28.70;80.20
74809;DHT22;63338;39.544;2.596;2023-07-20T06:27:54;28.70;80.50
74809;DHT22;63338;39.544;2.596;2023-07-20T06:33:21;28.80;79.80
74809;DHT22;63338;39.544;2.596;2023-07-20T06:35:48;29.00;80.30
74809;DHT22;63338;39.544;2.596;2023-07-20T06:42:23;29.10;79.00
74809;DHT22;63338;39.544;2.596;2023-07-20T06:45:10;29.20;79.10
74809;DHT22;63338;39.544;2.596;2023-07-20T06:59:22;29.40;79.30
74809;DHT22;63338;39.544;2.596;2023-07-20T07:01:56;29.40;79.40
74809;DHT22;63338;39.544;2.596;2023-07-20T07:04:22;29.50;79.40
74809;DHT22;63338;39.544;2.596;2023-07-20T07:06:49;29.50;79.50
74809;DHT22;63338;39.544;2.596;2023-07-20T07:09:19;29.50;79.50
74809;DHT22;63338;39.544;2.596;2023-07-20T07:11:49;29.50;79.70
74809;DHT22;63338;39.544;2.596;2023-07-20T07:36:50;30.40;77.20
74809;DHT22;63338;39.544;2.596;2023-07-20T07:53:26;30.70;76.40
74809;DHT22;63338;39.544;2.596;2023-07-20T07:56:43;30.80;75.80
74809;DHT22;63338;39.544;2.596;2023-07-20T07:59:58;30.80;75.60
74809;DHT22;63338;39.544;2.596;2023-07-20T08:07:11;31.10;75.00
74809;DHT22;63338;39.544;2.596;2023-07-20T08:10:38;31.20;75.60
74809;DHT22;63338;39.544;2.596;2023-07-20T08:28:57;31.70;72.90
74809;DHT22;63338;39.544;2.596;2023-07-20T08:32:25;31.60;72.60
74809;DHT22;63338;39.544;2.596;2023-07-20T10:33:15;33.80;66.10
74809;DHT22;63338;39.544;2.596;2023-07-20T11:33:02;33.60;67.40
74809;DHT22;63338;39.544;2.596;2023-07-20T11:37:21;33.50;67.80
74809;DHT22;63338;39.544;2.596;2023-07-20T11:40:56;33.30;68.50
74809;DHT22;63338;39.544;2.596;2023-07-20T11:43:57;33.10;69.20
74809;DHT22;63338;39.544;2.596;2023-07-20T11:46:34;33.00;69.40
74809;DHT22;63338;39.544;2.596;2023-07-20T11:49:01;32.80;69.90
74809;DHT22;63338;39.544;2.596;2023-07-20T11:51:33;32.70;70.60
74809;DHT22;63338;39.544;2.596;2023-07-20T11:54:44;32.30;71.50
74809;DHT22;63338;39.544;2.596;2023-07-20T11:57:40;31.90;72.60
74809;DHT22;63338;39.544;2.596;2023-07-20T12:01:06;31.60;73.80
74809;DHT22;63338;39.544;2.596;2023-07-20T12:03:37;31.30;74.70
74809;DHT22;63338;39.544;2.596;2023-07-20T12:16:15;30.90;76.60
74809;DHT22;63338;39.544;2.596;2023-07-20T12:26:56;30.40;78.40
74809;DHT22;63338;39.544;2.596;2023-07-20T12:29:25;30.20;79.80
74809;DHT22;63338;39.544;2.596;2023-07-20T12:36:05;30.10;80.10
74809;DHT22;63338;39.544;2.596;2023-07-20T12:39:15;30.30;79.30
74809;DHT22;63338;39.544;2.596;2023-07-20T12:42:14;30.40;77.80
74809;DHT22;63338;39.544;2.596;2023-07-20T12:44:53;30.60;75.90
74809;DHT22;63338;39.544;2.596;2023-07-20T12:47:28;30.80;75.10
74809;DHT22;63338;39.544;2.596;2023-07-20T12:49:55;31.10;74.10
74809;DHT22;63338;39.544;2.596;2023-07-20T12:52:24;31.40;73.30
74809;DHT22;63338;39.544;2.596;2023-07-20T12:54:53;31.60;72.60
74809;DHT22;63338;39.544;2.596;2023-07-20T12:57:57;31.80;74.60
74809;DHT22;63338;39.544;2.596;2023-07-20T13:00:34;32.00;75.10
74809;DHT22;63338;39.544;2.596;2023-07-20T13:03:19;32.20;74.50
74809;DHT22;63338;39.544;2.596;2023-07-20T13:06:19;32.40;73.90
74809;DHT22;63338;39.544;2.596;2023-07-20T13:08:46;32.60;73.70
74809;DHT22;63338;39.544;2.596;2023-07-20T13:11:13;32.60;73.90
74809;DHT22;63338;39.544;2.596;2023-07-20T13:13:45;32.60;73.20
74809;DHT22;63338;39.544;2.596;2023-07-20T13:16:22;32.60;73.60
74809;DHT22;63338;39.544;2.596;2023-07-20T13:18:51;32.60;73.20
74809;DHT22;63338;39.544;2.596;2023-07-20T13:21:19;32.60;72.30
74809;DHT22;63338;39.544;2.596;2023-07-20T13:23:51;32.70;72.90
74809;DHT22;63338;39.544;2.596;2023-07-20T13:26:59;32.70;72.30
74809;DHT22;63338;39.544;2.596;2023-07-20T20:34:18;28.70;83.50
74809;DHT22;63338;39.544;2.596;2023-07-20T20:36:58;28.70;85.70
74809;DHT22;63338;39.544;2.596;2023-07-20T20:39:45;28.70;85.40
